Airfield :
LOGIN :

Register | Disclaimer

   EN    FR    IT 

 










Legend :    VFR   Marginal VFR   IFR   Intensive IFR   Very Intensive IFR
Visi :
Ceiling :
>= 8 km
>= 3000ft
5 to 8 km
1000 to 3000 ft
1500m to 5 km
500 to 1000 ft
800 to 1500m
200 to 500 ft
< 800m
< 200 ft
Symbols :   Thunderstorms  Fog  Heavy snow  Heavy precipitations  Wind > 20 kt
SIGMETs :     Misc.  Thunderstorms  Icing  Turbulence  Mountain Waves  Volcanic Ashes






- Airport Elevation : 1768 ft


LEHC - Huesca Pirineos

CURRENT METAR :
  • 260300Z AUTO 08003KT 8000 DZ OVC008 06/06 Q1017

EXPIRED METARs :
  • 260230Z AUTO 07004KT 6000 -RA OVC010 06/06 Q1017
  • 260200Z AUTO 08004KT 040V110 6000 -RA OVC009 07/07 Q1017 RERA
  • 260130Z AUTO 22005KT 6000 +RA FEW005 OVC010 07/07 Q1017
  • 260100Z AUTO 09005KT 050V140 9999 -RA OVC012 07/07 Q1017
  • 260030Z AUTO 06005KT 360V100 9999 RA OVC012 07/07 Q1017

TAF TAF LEHC
Valid from the 26 at 03:00 until the 27 at 03:00 UTC


260200Z 2603/2703 VRB03KT 9999 BKN030 TX12/2614Z TN02/2607Z
PROB40
TEMPO 2603/2610 4000 DZ BR BKN014
BECMG 2611/2613 28010KT
BECMG 2617/2619 VRB03KT



MET'MAP, your aeronautical weather chart ! - Copyright ORBIFLY December 2007 - Disclaimer

ORBIFLY MET'MAP TEAM :

Programming & Development : Alexandra Zaïnal
Concept & original design : Baudouin d'Aumeries
Assistance for programming : Marc-Olivier Méhu
Technical & hardware support : Manuel Goepfert

Contact : metmap@orbifly.com




SOURCES & CREDITS :

   NOAA